Time;durP1;ratioP1;P1;durP2;ratioP2;P2;SDS_P1;SDS_P2;PMS_P1;PMS_P2;Temp;Humidity;BMP_temperature;BMP_pressure;BME280_temperature;BME280_humidity;BME280_pressure;Samples;Min_cycle;Max_cycle;Signal;HPM_P1;HPM_P2
2022/04/04 00:08:24;;;;;;;0.20;0.00;;;6.30;99.90;;;;;;25411535;23;20172;-61
2022/04/04 00:18:27;;;;;;;0.20;0.00;;;6.20;99.90;;;;;;25410535;23;20214;-62
2022/04/04 00:28:32;;;;;;;0.20;0.10;;;6.00;99.90;;;;;;25412668;23;20198;-62
2022/04/04 00:38:36;;;;;;;0.20;0.10;;;5.70;99.90;;;;;;25410689;23;20216;-67
2022/04/04 00:48:42;;;;;;;0.20;0.17;;;5.60;99.90;;;;;;25409904;23;20182;-66
2022/04/04 00:58:45;;;;;;;0.20;0.10;;;5.50;99.90;;;;;;25410460;23;20493;-67
2022/04/04 01:08:50;;;;;;;0.20;0.00;;;5.50;99.90;;;;;;25409896;23;20172;-76
2022/04/04 01:18:54;;;;;;;0.20;0.00;;;5.30;99.90;;;;;;25411089;23;20203;-77
2022/04/04 01:28:59;;;;;;;0.20;0.00;;;5.20;99.90;;;;;;25382451;23;20198;-73
2022/04/04 01:39:04;;;;;;;0.20;0.20;;;5.30;99.90;;;;;;25408723;23;20418;-76
2022/04/04 01:49:10;;;;;;;0.20;0.10;;;5.30;99.90;;;;;;25406429;23;20183;-78
2022/04/04 01:59:14;;;;;;;0.20;0.10;;;5.20;99.90;;;;;;25407211;23;20227;-76
2022/04/04 02:09:19;;;;;;;2.77;1.40;;;5.20;99.90;;;;;;25405809;23;20167;-76
2022/04/04 02:19:23;;;;;;;0.20;0.10;;;5.10;99.90;;;;;;25384442;23;20286;-75
2022/04/04 02:29:28;;;;;;;0.20;0.10;;;5.00;99.90;;;;;;25401577;23;20260;-67
2022/04/04 02:39:32;;;;;;;0.20;0.10;;;4.90;99.90;;;;;;25401649;23;20198;-67
2022/04/04 02:49:37;;;;;;;0.20;0.10;;;5.00;99.90;;;;;;25398982;23;20179;-67
2022/04/04 02:59:41;;;;;;;0.20;0.00;;;5.00;99.90;;;;;;25381944;23;20201;-74
2022/04/04 03:09:46;;;;;;;0.20;0.10;;;5.00;99.90;;;;;;25379313;23;20210;-78
2022/04/04 03:19:50;;;;;;;0.43;0.43;;;5.00;99.90;;;;;;25378969;23;20451;-68
2022/04/04 03:29:55;;;;;;;0.20;0.00;;;5.00;99.90;;;;;;25404873;23;20343;-68
2022/04/04 03:39:59;;;;;;;0.20;0.00;;;5.00;99.90;;;;;;25378983;23;20203;-67
2022/04/04 03:50:05;;;;;;;0.20;0.10;;;4.90;99.90;;;;;;25405252;23;20512;-68
2022/04/04 04:00:10;;;;;;;0.20;0.10;;;4.70;99.90;;;;;;25378248;23;20203;-68
2022/04/04 04:10:15;;;;;;;0.20;0.10;;;4.90;99.90;;;;;;25408867;23;20186;-68
2022/04/04 04:20:25;;;;;;;0.20;0.10;;;4.90;99.90;;;;;;25385869;23;20204;-75
2022/04/04 04:30:31;;;;;;;0.20;0.10;;;4.70;99.90;;;;;;25412288;23;20177;-76
2022/04/04 04:40:35;;;;;;;0.20;0.10;;;4.40;99.90;;;;;;25386514;23;20418;-76
2022/04/04 04:50:40;;;;;;;0.20;0.10;;;4.40;99.90;;;;;;25384193;23;20171;-77
2022/04/04 05:00:44;;;;;;;0.20;0.00;;;4.60;99.90;;;;;;25410504;23;20206;-76
2022/04/04 05:10:50;;;;;;;0.20;0.10;;;4.30;99.90;;;;;;25407337;23;20170;-66
2022/04/04 05:20:53;;;;;;;0.20;0.10;;;4.50;99.90;;;;;;25407131;23;20507;-67
2022/04/04 05:30:59;;;;;;;0.20;0.10;;;4.50;99.90;;;;;;25406579;23;20171;-68
2022/04/04 05:41:03;;;;;;;0.20;0.10;;;4.50;99.90;;;;;;25404667;23;20223;-68
2022/04/04 05:51:09;;;;;;;0.20;0.00;;;4.50;99.90;;;;;;25399649;23;20182;-69
2022/04/04 06:01:15;;;;;;;0.20;0.00;;;4.60;99.90;;;;;;25373718;23;20247;-68
2022/04/04 06:11:20;;;;;;;0.20;0.10;;;4.70;99.90;;;;;;25391408;23;20171;-67
2022/04/04 06:21:24;;;;;;;0.20;0.10;;;4.60;99.90;;;;;;25400738;23;20226;-63
2022/04/04 06:31:29;;;;;;;0.20;0.10;;;4.80;99.90;;;;;;25373882;23;20176;-61
2022/04/04 06:41:33;;;;;;;0.20;0.10;;;5.10;99.90;;;;;;25375063;23;20192;-62
2022/04/04 06:51:38;;;;;;;0.20;0.10;;;5.40;99.90;;;;;;25398549;23;20191;-62
2022/04/04 07:01:42;;;;;;;0.20;0.00;;;5.70;99.90;;;;;;25397042;23;20191;-61
2022/04/04 07:11:51;;;;;;;0.20;0.10;;;6.00;99.90;;;;;;25398819;23;20175;-63
2022/04/04 07:21:54;;;;;;;0.20;0.00;;;6.30;99.90;;;;;;25394447;23;20230;-61
2022/04/04 07:32:00;;;;;;;0.20;0.00;;;6.80;99.90;;;;;;25372119;23;20175;-62
2022/04/04 07:42:05;;;;;;;0.20;0.00;;;7.20;99.90;;;;;;25395627;23;20192;-61
2022/04/04 07:52:10;;;;;;;0.20;0.07;;;7.50;99.90;;;;;;25408242;23;20175;-61
2022/04/04 08:02:15;;;;;;;0.20;0.00;;;7.40;99.90;;;;;;25358517;23;20264;-61
2022/04/04 08:12:21;;;;;;;0.20;0.03;;;7.50;99.90;;;;;;25407320;23;20263;-62
2022/04/04 08:22:25;;;;;;;0.20;0.10;;;7.90;99.90;;;;;;25407691;23;20226;-61
2022/04/04 08:32:30;;;;;;;0.20;0.07;;;8.50;99.90;;;;;;25382523;23;20179;-67
2022/04/04 08:42:35;;;;;;;0.20;0.03;;;9.40;99.90;;;;;;25406742;23;20198;-68
2022/04/04 08:52:40;;;;;;;0.53;0.53;;;9.90;99.90;;;;;;25376662;23;20210;-67
2022/04/04 09:03:02;;;;;;;0.20;0.10;;;10.10;99.90;;;;;;25377334;23;20195;-68
2022/04/04 09:13:10;;;;;;;0.20;0.00;;;10.40;99.90;;;;;;25411891;23;20459;-73
2022/04/04 09:23:14;;;;;;;0.20;0.00;;;10.10;99.90;;;;;;25412878;23;20226;-76
2022/04/04 09:33:35;;;;;;;0.20;0.10;;;10.60;99.90;;;;;;25402328;23;20422;-74
2022/04/04 09:43:52;;;;;;;0.20;0.10;;;10.60;99.90;;;;;;25401696;23;20198;-73
2022/04/04 09:54:03;;;;;;;0.20;0.10;;;10.70;99.90;;;;;;25391822;23;20191;-75
2022/04/04 10:04:09;;;;;;;0.20;0.10;;;11.30;99.90;;;;;;25391292;23;20515;-75
2022/04/04 10:14:17;;;;;;;0.20;0.10;;;11.60;99.90;;;;;;25391647;23;20192;-74
2022/04/04 10:24:21;;;;;;;0.20;0.10;;;12.10;99.90;;;;;;25386634;23;20191;-73
2022/04/04 10:34:27;;;;;;;0.20;0.10;;;12.50;99.90;;;;;;25388722;23;21070;-74
2022/04/04 10:44:47;;;;;;;0.20;0.10;;;12.70;99.90;;;;;;25397407;23;20194;-74
2022/04/04 10:54:53;;;;;;;0.20;0.00;;;12.70;99.90;;;;;;25398672;23;20172;-74
2022/04/04 11:15:48;;;;;;;0.20;0.10;;;14.10;99.90;;;;;;25345304;23;20222;-73
2022/04/04 11:25:52;;;;;;;0.20;0.10;;;14.20;99.90;;;;;;25404729;23;20267;-75
2022/04/04 11:35:58;;;;;;;0.20;0.10;;;14.40;99.90;;;;;;25404865;23;20172;-75
2022/04/04 11:46:05;;;;;;;0.20;0.10;;;14.80;99.90;;;;;;25400123;23;20243;-73
2022/04/04 11:56:20;;;;;;;0.20;0.10;;;15.20;99.90;;;;;;25401205;23;20239;-74
2022/04/04 12:06:24;;;;;;;0.20;0.00;;;15.60;99.90;;;;;;25378284;23;20183;-74
2022/04/04 12:16:31;;;;;;;0.20;0.10;;;16.40;99.90;;;;;;25401585;23;20195;-74
2022/04/04 12:26:35;;;;;;;0.20;0.10;;;16.40;99.90;;;;;;25399224;23;20437;-73
2022/04/04 12:36:43;;;;;;;0.20;0.10;;;16.00;99.90;;;;;;25388603;23;20167;-74
2022/04/04 12:46:47;;;;;;;1.73;0.77;;;16.00;99.90;;;;;;25373729;23;20202;-73
2022/04/04 12:56:52;;;;;;;0.20;0.00;;;16.20;99.90;;;;;;25401225;23;20168;-75
2022/04/04 13:06:56;;;;;;;0.20;0.00;;;16.90;99.90;;;;;;25400877;23;20195;-62
2022/04/04 13:17:05;;;;;;;0.20;0.10;;;17.00;99.90;;;;;;25373284;23;20200;-63
2022/04/04 13:27:09;;;;;;;0.23;0.17;;;18.00;99.90;;;;;;25399330;23;21170;-62
2022/04/04 13:37:14;;;;;;;0.20;0.10;;;18.30;99.90;;;;;;25399659;23;20183;-62
2022/04/04 13:47:18;;;;;;;0.20;0.10;;;17.80;99.90;;;;;;25398906;23;20195;-62
2022/04/04 13:57:24;;;;;;;0.20;0.10;;;18.60;99.90;;;;;;25372062;23;20164;-63
2022/04/04 14:07:27;;;;;;;0.20;0.10;;;18.50;99.90;;;;;;25392927;23;20184;-62
2022/04/04 14:17:35;;;;;;;0.20;0.10;;;18.80;99.90;;;;;;25397533;23;20191;-63
2022/04/04 14:27:39;;;;;;;0.20;0.10;;;19.70;99.90;;;;;;25373801;23;20206;-63
2022/04/04 14:37:44;;;;;;;0.20;0.10;;;18.90;99.90;;;;;;25346659;23;20164;-64
2022/04/04 14:47:48;;;;;;;0.20;0.10;;;18.60;99.90;;;;;;25394818;23;20203;-64
2022/04/04 14:57:54;;;;;;;0.20;0.10;;;18.80;99.90;;;;;;25392339;23;20167;-65
2022/04/04 15:07:58;;;;;;;0.20;0.20;;;19.50;99.90;;;;;;25391375;23;20235;-63
2022/04/04 15:18:04;;;;;;;0.20;0.03;;;19.60;99.90;;;;;;25392293;23;20194;-65
2022/04/04 15:28:13;;;;;;;0.20;0.00;;;19.80;99.90;;;;;;25392162;23;20250;-64
2022/04/04 15:38:18;;;;;;;0.20;0.10;;;19.60;99.90;;;;;;25376005;23;20227;-63
2022/04/04 15:48:23;;;;;;;0.20;0.10;;;19.60;99.90;;;;;;25381939;23;20316;-61
2022/04/04 15:58:30;;;;;;;0.20;0.10;;;19.30;99.90;;;;;;25381669;23;20183;-64
2022/04/04 16:08:34;;;;;;;0.20;0.00;;;18.00;99.90;;;;;;25388788;23;20211;-63
2022/04/04 20:50:02;;;;;;;0.20;0.10;;;10.30;99.90;;;;;;25432192;23;20199;-67
2022/04/04 21:00:10;;;;;;;0.20;0.07;;;9.50;99.90;;;;;;25402110;23;20187;-60
2022/04/04 21:10:16;;;;;;;0.20;0.10;;;8.90;99.90;;;;;;25404975;23;20167;-60
2022/04/04 21:20:19;;;;;;;0.20;0.00;;;8.60;99.90;;;;;;25402829;23;20210;-61
2022/04/04 21:30:25;;;;;;;0.20;0.10;;;8.50;99.90;;;;;;25404570;23;20174;-61
2022/04/04 21:40:28;;;;;;;0.20;0.00;;;8.50;99.90;;;;;;25404175;23;20199;-62
2022/04/04 21:50:34;;;;;;;0.20;0.10;;;8.60;99.90;;;;;;25400143;23;20208;-62
2022/04/04 22:00:38;;;;;;;0.20;0.10;;;9.00;99.90;;;;;;25402223;23;20192;-62
2022/04/04 22:10:44;;;;;;;0.20;0.10;;;9.30;99.90;;;;;;25401802;23;20171;-62
2022/04/04 22:20:47;;;;;;;0.20;0.00;;;9.00;99.90;;;;;;25394659;23;20522;-63
2022/04/04 22:30:53;;;;;;;0.20;0.10;;;8.90;99.90;;;;;;25393242;23;20187;-61
2022/04/04 22:40:56;;;;;;;0.20;0.10;;;8.80;99.90;;;;;;25367170;23;20251;-62
2022/04/04 22:51:01;;;;;;;0.20;0.10;;;8.70;99.90;;;;;;25393201;23;20206;-61
2022/04/04 23:01:05;;;;;;;0.20;0.10;;;8.80;99.90;;;;;;25411331;23;20386;-76
2022/04/04 23:11:11;;;;;;;0.20;0.10;;;8.70;99.90;;;;;;25370427;23;20371;-67
2022/04/04 23:21:15;;;;;;;0.20;0.03;;;8.60;99.90;;;;;;25367277;23;20215;-67
2022/04/04 23:31:20;;;;;;;0.20;0.00;;;8.40;99.90;;;;;;25391063;23;20202;-69
2022/04/04 23:41:24;;;;;;;0.20;0.10;;;8.40;99.90;;;;;;25393305;23;20246;-67
2022/04/04 23:51:29;;;;;;;0.20;0.10;;;8.30;99.90;;;;;;25390901;23;20215;-77
